Time;durP1;ratioP1;P1;durP2;ratioP2;P2;SDS_P1;SDS_P2;PMS_P1;PMS_P2;Temp;Humidity;BMP_temperature;BMP_pressure;BME280_temperature;BME280_humidity;BME280_pressure;Samples;Min_cycle;Max_cycle;Signal;HPM_P1;HPM_P2
2021/09/19 00:02:02;;;;;;;36.10;19.80;;;;;;;11.40;100.00;93572.75;5115611;28;20224;-79
2021/09/19 00:04:30;;;;;;;37.87;20.03;;;;;;;11.42;100.00;93568.94;5115162;28;20206;-79
2021/09/19 00:06:56;;;;;;;38.27;20.87;;;;;;;11.47;100.00;93566.50;5115731;28;20197;-79
2021/09/19 00:09:23;;;;;;;38.30;20.20;;;;;;;11.39;100.00;93571.16;5115541;28;20202;-78
2021/09/19 00:11:50;;;;;;;38.93;19.23;;;;;;;11.44;100.00;93563.47;5115525;28;20204;-78
2021/09/19 00:14:17;;;;;;;40.00;20.23;;;;;;;11.46;100.00;93567.50;5115514;28;20201;-79
2021/09/19 00:16:44;;;;;;;41.67;20.73;;;;;;;11.38;100.00;93565.13;5115401;28;20194;-79
2021/09/19 00:19:12;;;;;;;36.93;20.87;;;;;;;11.34;100.00;93565.75;5115260;28;20205;-78
2021/09/19 00:21:40;;;;;;;38.23;20.57;;;;;;;11.38;100.00;93562.50;5115221;28;20659;-79
2021/09/19 00:24:07;;;;;;;35.10;19.40;;;;;;;11.42;100.00;93555.06;5115467;28;20193;-79
2021/09/19 00:26:33;;;;;;;36.00;20.00;;;;;;;11.34;100.00;93552.69;5114920;28;20240;-79
2021/09/19 00:29:00;;;;;;;36.30;19.83;;;;;;;11.25;100.00;93558.16;5115263;28;20205;-79
2021/09/19 00:31:26;;;;;;;38.17;20.87;;;;;;;11.22;100.00;93555.97;5115049;28;20205;-79
2021/09/19 00:33:53;;;;;;;42.17;19.90;;;;;;;11.25;100.00;93550.31;5115254;28;20250;-80
2021/09/19 00:36:19;;;;;;;35.57;19.60;;;;;;;11.18;100.00;93548.78;5115263;28;20254;-79
2021/09/19 00:38:47;;;;;;;33.97;18.37;;;;;;;11.15;100.00;93549.19;5114336;28;20201;-79
2021/09/19 00:41:14;;;;;;;34.43;19.27;;;;;;;11.15;100.00;93543.97;5114956;28;20651;-78
2021/09/19 00:43:40;;;;;;;40.43;21.40;;;;;;;11.24;100.00;93548.75;5114992;28;20208;-78
2021/09/19 00:46:06;;;;;;;35.73;19.87;;;;;;;11.13;100.00;93551.22;5114655;28;20609;-79
2021/09/19 00:48:33;;;;;;;40.10;20.00;;;;;;;11.02;100.00;93540.38;5114255;28;20209;-80
2021/09/19 00:51:01;;;;;;;36.73;19.67;;;;;;;11.07;100.00;93532.75;5114714;28;20206;-79
2021/09/19 00:53:28;;;;;;;36.07;19.37;;;;;;;11.01;100.00;93538.00;5114817;28;20198;-79
2021/09/19 00:55:58;;;;;;;36.83;18.43;;;;;;;10.98;100.00;93534.00;5114719;28;20247;-80
2021/09/19 00:58:24;;;;;;;38.40;20.07;;;;;;;10.88;100.00;93534.44;5114643;28;20274;-80
2021/09/19 01:00:52;;;;;;;34.93;18.53;;;;;;;10.81;100.00;93532.84;5114466;28;20213;-80
2021/09/19 01:03:18;;;;;;;40.53;19.97;;;;;;;10.71;100.00;93526.28;5114632;28;20203;-79
2021/09/19 01:05:45;;;;;;;36.57;19.87;;;;;;;10.63;100.00;93520.50;5114506;28;20225;-78
2021/09/19 01:08:15;;;;;;;41.17;20.27;;;;;;;10.52;100.00;93516.72;5114418;28;20678;-79
2021/09/19 01:10:42;;;;;;;38.23;19.97;;;;;;;10.57;100.00;93516.88;5114393;28;20197;-79
2021/09/19 01:13:10;;;;;;;35.87;19.17;;;;;;;10.58;100.00;93504.66;5114216;28;20208;-79
2021/09/19 01:15:38;;;;;;;44.77;21.00;;;;;;;10.48;100.00;93498.06;5114336;28;20205;-79
2021/09/19 01:18:06;;;;;;;41.00;21.10;;;;;;;10.45;100.00;93495.06;5114399;28;20201;-79
2021/09/19 01:20:34;;;;;;;42.70;22.63;;;;;;;10.42;100.00;93495.47;5113777;28;20202;-79
2021/09/19 01:23:04;;;;;;;43.40;22.37;;;;;;;10.56;100.00;93491.81;5114255;28;20237;-79
2021/09/19 01:25:33;;;;;;;42.53;21.37;;;;;;;10.44;100.00;93483.81;5113851;28;20251;-79
2021/09/19 01:28:00;;;;;;;47.00;22.27;;;;;;;10.45;100.00;93485.41;5113833;28;20210;-79
2021/09/19 01:30:26;;;;;;;46.80;23.43;;;;;;;10.44;100.00;93485.63;5114081;28;20201;-79
2021/09/19 01:32:53;;;;;;;48.33;24.10;;;;;;;10.39;100.00;93488.84;5114082;28;20198;-78
2021/09/19 01:35:19;;;;;;;45.80;23.90;;;;;;;10.34;100.00;93488.66;5113999;28;20205;-79
2021/09/19 01:37:46;;;;;;;49.93;24.40;;;;;;;10.35;100.00;93495.50;5113901;28;20204;-79
2021/09/19 01:40:14;;;;;;;44.00;22.97;;;;;;;10.31;100.00;93486.47;5113774;28;20197;-79
2021/09/19 01:42:43;;;;;;;46.57;23.53;;;;;;;10.27;100.00;93490.47;5113766;28;20529;-78
2021/09/19 01:45:11;;;;;;;45.87;22.83;;;;;;;10.22;100.00;93493.69;5113885;28;20204;-79
2021/09/19 01:47:38;;;;;;;39.83;21.70;;;;;;;10.13;100.00;93492.31;5113836;28;20197;-79
2021/09/19 01:50:05;;;;;;;42.30;22.13;;;;;;;10.03;100.00;93492.75;5113749;28;20216;-79
2021/09/19 01:52:32;;;;;;;43.67;22.20;;;;;;;9.95;100.00;93485.91;5113710;28;20204;-79
2021/09/19 01:54:59;;;;;;;47.80;21.20;;;;;;;10.06;100.00;93486.28;5113528;28;20205;-78
2021/09/19 01:57:25;;;;;;;46.53;22.70;;;;;;;10.03;100.00;93478.91;5113723;28;20205;-78
2021/09/19 01:59:55;;;;;;;46.83;21.77;;;;;;;9.90;100.00;93475.31;5113521;28;20201;-78
2021/09/19 02:02:22;;;;;;;40.63;21.13;;;;;;;9.84;100.00;93481.31;5113562;28;20197;-79
2021/09/19 02:04:50;;;;;;;50.77;24.90;;;;;;;9.97;100.00;93468.25;5113449;28;20683;-78
2021/09/19 02:07:16;;;;;;;51.13;23.70;;;;;;;9.92;100.00;93472.50;5113364;28;20229;-78
2021/09/19 02:09:43;;;;;;;49.87;24.73;;;;;;;9.90;100.00;93470.09;5113684;28;20213;-78
2021/09/19 02:12:13;;;;;;;50.50;23.93;;;;;;;9.94;100.00;93463.47;5113577;28;20205;-78
2021/09/19 02:14:40;;;;;;;48.53;23.60;;;;;;;9.83;100.00;93466.69;5113449;28;20197;-78
2021/09/19 02:17:08;;;;;;;56.77;26.37;;;;;;;9.98;100.00;93456.84;5113431;28;20205;-79
2021/09/19 02:19:34;;;;;;;57.27;25.47;;;;;;;9.99;100.00;93453.22;5113398;28;20204;-79
2021/09/19 02:22:00;;;;;;;53.60;24.60;;;;;;;10.04;100.00;93454.41;5113362;28;20205;-78
2021/09/19 02:24:27;;;;;;;56.10;26.93;;;;;;;10.06;100.00;93452.38;5113263;28;20667;-78
2021/09/19 02:26:53;;;;;;;48.77;24.30;;;;;;;10.00;100.00;93446.19;5112968;28;20752;-78
2021/09/19 02:29:20;;;;;;;49.57;24.83;;;;;;;9.88;100.00;93453.06;5113407;28;20204;-78
2021/09/19 02:31:46;;;;;;;50.87;24.10;;;;;;;9.71;100.00;93452.66;5113055;28;20208;-79
2021/09/19 02:34:14;;;;;;;51.80;24.67;;;;;;;9.66;100.00;93450.69;5116390;28;20196;-79
2021/09/19 02:36:41;;;;;;;52.87;25.63;;;;;;;9.90;100.00;93438.00;5117380;28;20524;-78
2021/09/19 02:39:08;;;;;;;59.43;26.23;;;;;;;10.08;100.00;93437.34;5117780;28;20201;-79
2021/09/19 02:41:35;;;;;;;49.13;24.23;;;;;;;9.89;100.00;93437.22;5117611;28;20233;-78
2021/09/19 02:44:02;;;;;;;55.57;26.37;;;;;;;9.99;100.00;93427.16;5117314;28;20201;-77
2021/09/19 02:46:28;;;;;;;53.03;25.00;;;;;;;9.99;100.00;93432.38;5117260;28;20229;-78
2021/09/19 02:48:55;;;;;;;53.27;25.23;;;;;;;10.04;100.00;93433.53;5117025;28;20198;-77
2021/09/19 02:51:23;;;;;;;57.23;26.00;;;;;;;10.03;100.00;93432.75;5117299;28;20248;-79
2021/09/19 02:53:49;;;;;;;49.50;23.50;;;;;;;9.89;100.00;93426.78;5116997;28;20601;-78
2021/09/19 02:56:19;;;;;;;47.63;23.30;;;;;;;9.84;100.00;93423.16;5116940;28;20682;-78
2021/09/19 02:58:45;;;;;;;51.17;24.53;;;;;;;9.91;100.00;93423.94;5117041;28;20205;-79
2021/09/19 03:01:12;;;;;;;47.97;23.40;;;;;;;9.84;100.00;93423.97;5116859;28;20202;-79
2021/09/19 03:03:38;;;;;;;45.13;22.97;;;;;;;9.78;100.00;93425.59;5116731;28;20201;-78
2021/09/19 03:06:04;;;;;;;46.53;24.13;;;;;;;9.73;100.00;93425.41;5116961;28;20221;-78
2021/09/19 03:08:32;;;;;;;51.03;24.63;;;;;;;9.76;100.00;93426.81;5116757;28;20708;-78
2021/09/19 03:10:59;;;;;;;58.23;26.13;;;;;;;9.80;100.00;93426.19;5116780;28;20201;-78
2021/09/19 03:13:26;;;;;;;54.90;25.17;;;;;;;9.67;100.00;93423.59;5116838;28;20258;-78
2021/09/19 03:15:52;;;;;;;50.40;25.00;;;;;;;9.69;100.00;93415.56;5116715;28;20197;-78
2021/09/19 03:18:18;;;;;;;48.33;23.10;;;;;;;9.71;100.00;93403.13;5116508;28;20209;-78
2021/09/19 03:20:45;;;;;;;53.73;25.80;;;;;;;9.80;100.00;93407.13;5116755;28;20197;-79
2021/09/19 03:23:11;;;;;;;46.40;22.53;;;;;;;9.68;100.00;93420.00;5116174;28;20221;-79
2021/09/19 03:25:39;;;;;;;51.80;24.13;;;;;;;9.70;100.00;93407.56;5115917;28;20650;-78
2021/09/19 03:28:05;;;;;;;51.47;23.83;;;;;;;9.73;100.00;93414.19;5115348;28;20202;-78
2021/09/19 03:30:32;;;;;;;57.07;23.60;;;;;;;9.60;100.00;93417.59;5115106;28;20197;-78
2021/09/19 03:32:58;;;;;;;43.77;21.53;;;;;;;9.54;100.00;93419.22;5115276;28;20193;-79
2021/09/19 03:35:25;;;;;;;53.23;23.43;;;;;;;9.63;100.00;93410.19;5115239;28;20220;-78
2021/09/19 03:37:51;;;;;;;52.80;22.10;;;;;;;9.52;100.00;93413.41;5114969;28;20209;-78
2021/09/19 03:40:19;;;;;;;51.60;23.03;;;;;;;9.52;100.00;93416.00;5114990;28;20254;-78
2021/09/19 03:42:47;;;;;;;52.67;24.03;;;;;;;9.50;100.00;93415.41;5115037;28;20249;-77
2021/09/19 03:45:13;;;;;;;48.50;23.37;;;;;;;9.43;100.00;93412.81;5114458;28;20197;-78
2021/09/19 03:47:40;;;;;;;46.37;22.10;;;;;;;9.27;100.00;93413.22;5115055;28;20255;-78
2021/09/19 03:50:08;;;;;;;56.47;24.13;;;;;;;9.40;100.00;93413.22;5114904;28;20208;-78
2021/09/19 03:52:34;;;;;;;57.90;24.90;;;;;;;9.33;100.00;93412.44;5114590;28;20578;-78
2021/09/19 03:55:01;;;;;;;52.17;24.20;;;;;;;9.22;100.00;93416.44;5114788;28;20205;-78
2021/09/19 03:57:27;;;;;;;51.67;22.40;;;;;;;9.18;100.00;93407.44;5114670;28;20201;-79
2021/09/19 03:59:55;;;;;;;52.50;23.53;;;;;;;9.14;100.00;93408.03;5114495;28;20227;-79
2021/09/19 04:02:21;;;;;;;42.70;20.37;;;;;;;9.01;100.00;93411.41;5114668;28;20197;-79
2021/09/19 04:04:48;;;;;;;60.47;25.57;;;;;;;9.06;100.00;93411.66;5114735;28;20224;-78
2021/09/19 04:07:14;;;;;;;41.33;20.80;;;;;;;8.88;100.00;93420.81;5114744;28;20232;-79
2021/09/19 04:09:41;;;;;;;52.53;22.97;;;;;;;8.81;100.00;93417.44;5114580;28;20202;-79
2021/09/19 04:12:07;;;;;;;46.70;21.43;;;;;;;8.71;100.00;93430.03;5114508;28;20200;-78
2021/09/19 04:14:34;;;;;;;47.83;20.70;;;;;;;8.71;100.00;93427.44;5114318;28;20209;-78
2021/09/19 04:17:02;;;;;;;63.97;22.83;;;;;;;8.79;100.00;93432.44;5114569;28;20204;-78
2021/09/19 04:19:28;;;;;;;50.73;23.20;;;;;;;8.65;100.00;93441.22;5114472;28;20202;-79
2021/09/19 04:21:54;;;;;;;47.07;22.23;;;;;;;8.55;100.00;93441.59;5114465;28;20193;-78
2021/09/19 04:24:21;;;;;;;56.43;23.47;;;;;;;8.60;100.00;93443.59;5114330;28;20201;-78
2021/09/19 04:26:48;;;;;;;53.07;22.77;;;;;;;8.64;100.00;93444.81;5078825;28;1021132;-77
2021/09/19 04:29:14;;;;;;;52.17;23.00;;;;;;;8.57;100.00;93444.00;5115181;28;20246;-78
2021/09/19 04:31:41;;;;;;;56.60;23.53;;;;;;;8.62;100.00;93447.59;5115317;28;20213;-78
2021/09/19 04:34:09;;;;;;;49.67;22.10;;;;;;;8.43;100.00;93445.75;5115284;28;20200;-77
2021/09/19 04:36:35;;;;;;;45.67;21.93;;;;;;;8.44;100.00;93450.78;5115293;28;20598;-78
2021/09/19 04:39:02;;;;;;;53.70;22.37;;;;;;;8.43;100.00;93458.78;5115058;28;20582;-78
2021/09/19 04:41:28;;;;;;;55.63;21.53;;;;;;;8.30;100.00;93457.69;5115131;28;20213;-78
2021/09/19 04:43:54;;;;;;;45.07;20.60;;;;;;;8.32;100.00;93457.47;5114928;28;20713;-78
2021/09/19 04:46:21;;;;;;;40.47;19.93;;;;;;;8.23;100.00;93449.06;5115039;28;20225;-78
2021/09/19 04:48:50;;;;;;;46.17;21.03;;;;;;;8.20;100.00;93443.44;5115061;28;20697;-78
2021/09/19 04:51:19;;;;;;;43.13;20.67;;;;;;;8.07;100.00;93450.16;5114982;28;20292;-78
2021/09/19 04:53:45;;;;;;;46.50;21.00;;;;;;;7.97;100.00;93449.72;5114717;28;20201;-78
2021/09/19 04:56:12;;;;;;;49.13;21.83;;;;;;;7.91;100.00;93447.88;5113802;28;20205;-78
2021/09/19 04:58:38;;;;;;;46.57;21.17;;;;;;;7.88;100.00;93443.09;5114818;28;20208;-79
2021/09/19 05:01:05;;;;;;;49.13;21.80;;;;;;;7.81;100.00;93450.03;5114605;28;20216;-78
2021/09/19 05:03:31;;;;;;;53.07;20.83;;;;;;;7.90;100.00;93448.91;5114653;28;20205;-77
2021/09/19 05:05:57;;;;;;;56.30;22.07;;;;;;;8.03;100.00;93448.97;5114459;28;20536;-78
2021/09/19 05:08:26;;;;;;;66.30;24.33;;;;;;;8.15;100.00;93439.63;5114402;28;20233;-78
2021/09/19 05:10:52;;;;;;;63.87;23.47;;;;;;;8.11;100.00;93445.38;5114422;28;20266;-77
2021/09/19 05:13:19;;;;;;;59.30;22.87;;;;;;;8.05;100.00;93446.19;5114577;28;20200;-77
2021/09/19 05:15:46;;;;;;;75.43;26.10;;;;;;;8.04;100.00;93447.94;5114422;28;20208;-78
2021/09/19 05:18:12;;;;;;;68.87;25.60;;;;;;;8.10;100.00;93449.78;5114255;28;20536;-77
2021/09/19 05:20:38;;;;;;;56.93;22.97;;;;;;;7.97;100.00;93447.13;5114196;28;20201;-77
2021/09/19 05:23:05;;;;;;;49.03;20.70;;;;;;;7.87;100.00;93446.69;5113680;28;20193;-78
2021/09/19 05:25:33;;;;;;;47.90;21.07;;;;;;;7.94;100.00;93444.91;5114252;28;20633;-77
2021/09/19 05:27:59;;;;;;;44.70;19.73;;;;;;;7.86;100.00;93447.66;5114182;28;20236;-78
2021/09/19 05:30:26;;;;;;;46.70;20.00;;;;;;;7.90;100.00;93443.72;5114202;28;20217;-77
2021/09/19 05:32:52;;;;;;;49.63;20.67;;;;;;;7.88;100.00;93441.28;5114148;28;20193;-78
2021/09/19 05:35:19;;;;;;;40.60;18.63;;;;;;;7.85;100.00;93440.88;5114065;28;20197;-77
2021/09/19 05:37:45;;;;;;;44.10;20.07;;;;;;;7.86;100.00;93439.88;5113781;28;20205;-77
2021/09/19 05:40:14;;;;;;;46.13;20.33;;;;;;;7.92;100.00;93449.50;5114108;28;20201;-78
2021/09/19 05:42:42;;;;;;;54.80;21.90;;;;;;;8.08;100.00;93448.41;5114018;28;20288;-77
2021/09/19 05:45:10;;;;;;;51.77;20.93;;;;;;;8.06;100.00;93437.38;5113910;28;20201;-78
2021/09/19 05:47:36;;;;;;;46.87;20.47;;;;;;;8.03;100.00;93438.56;5113840;28;20229;-78
2021/09/19 05:50:04;;;;;;;45.07;20.70;;;;;;;8.08;100.00;93440.59;5113731;28;20209;-78
2021/09/19 05:52:30;;;;;;;53.53;23.33;;;;;;;8.20;100.00;93440.84;5113795;28;20569;-77
2021/09/19 05:54:57;;;;;;;58.60;23.73;;;;;;;8.30;100.00;93433.47;5113874;28;20606;-78
2021/09/19 05:57:23;;;;;;;51.43;22.57;;;;;;;8.33;100.00;93431.28;5113780;28;20193;-78
2021/09/19 05:59:51;;;;;;;45.03;19.80;;;;;;;8.29;100.00;93437.88;5113510;28;20276;-78
2021/09/19 06:02:17;;;;;;;57.50;22.43;;;;;;;8.34;100.00;93429.47;5113636;28;20535;-78
2021/09/19 06:04:44;;;;;;;54.87;23.10;;;;;;;8.46;100.00;93420.16;5113447;28;20205;-77
2021/09/19 06:07:10;;;;;;;81.63;27.10;;;;;;;8.72;100.00;93410.00;5113303;28;20217;-78
2021/09/19 06:09:37;;;;;;;97.47;31.60;;;;;;;9.01;100.00;93406.22;5113646;28;20201;-78
2021/09/19 06:12:03;;;;;;;87.68;34.15;;;;;;;9.13;100.00;93401.22;5113076;28;20427;-78
2021/09/19 06:14:30;;;;;;;87.73;28.97;;;;;;;9.19;100.00;93406.44;5113441;28;20193;-78
2021/09/19 06:16:58;;;;;;;90.97;31.60;;;;;;;9.50;100.00;93417.22;5113417;28;20202;-78
2021/09/19 06:19:24;;;;;;;87.77;30.57;;;;;;;9.59;100.00;93422.03;5113293;28;20208;-78
2021/09/19 06:21:51;;;;;;;48.77;21.00;;;;;;;9.48;100.00;93434.88;5113514;28;20193;-78
2021/09/19 06:24:17;;;;;;;41.30;20.63;;;;;;;9.40;100.00;93446.28;5113513;28;20197;-78
2021/09/19 06:26:44;;;;;;;39.90;20.43;;;;;;;9.38;100.00;93448.31;5113033;28;20623;-78
2021/09/19 06:29:10;;;;;;;42.03;20.53;;;;;;;9.37;100.00;93459.72;5113349;28;20201;-79
2021/09/19 06:31:36;;;;;;;49.57;22.03;;;;;;;9.40;100.00;93451.50;5113224;28;20205;-79
2021/09/19 06:34:04;;;;;;;51.40;22.90;;;;;;;9.45;100.00;93462.13;5113192;28;20204;-77
2021/09/19 06:36:31;;;;;;;46.80;23.37;;;;;;;9.50;100.00;93462.31;5113670;28;20225;-77
2021/09/19 06:38:57;;;;;;;53.17;24.77;;;;;;;9.50;100.00;93464.13;5113521;28;20205;-78
2021/09/19 06:41:24;;;;;;;55.47;24.57;;;;;;;9.61;100.00;93461.72;5113329;28;20197;-77
2021/09/19 06:43:50;;;;;;;50.50;24.03;;;;;;;9.66;100.00;93468.13;5113194;28;20193;-78
2021/09/19 06:46:16;;;;;;;49.93;23.47;;;;;;;9.80;100.00;93465.28;5113155;28;20220;-77
2021/09/19 06:48:43;;;;;;;46.83;22.70;;;;;;;9.91;100.00;93466.50;5112862;28;20229;-77
2021/09/19 06:51:10;;;;;;;49.53;23.73;;;;;;;10.04;100.00;93459.63;5112924;28;20591;-78
2021/09/19 06:53:37;;;;;;;42.80;21.47;;;;;;;10.10;100.00;93464.03;5113052;28;20640;-77
2021/09/19 06:56:04;;;;;;;38.17;20.07;;;;;;;10.17;100.00;93470.03;5113166;28;20202;-78
2021/09/19 06:58:31;;;;;;;35.43;17.80;;;;;;;10.28;100.00;93472.00;5113132;28;20239;-77
2021/09/19 07:00:58;;;;;;;34.23;18.43;;;;;;;10.47;100.00;93480.00;5113067;28;20232;-77
2021/09/19 07:03:24;;;;;;;32.63;18.17;;;;;;;10.57;100.00;93480.34;5112899;28;20671;-77
2021/09/19 07:05:51;;;;;;;32.77;16.63;;;;;;;10.76;100.00;93488.28;5112825;28;20692;-77
2021/09/19 07:08:18;;;;;;;28.73;16.87;;;;;;;10.81;100.00;93491.06;5113004;28;20274;-78
2021/09/19 07:10:45;;;;;;;30.80;16.93;;;;;;;10.97;100.00;93500.25;5113061;28;20202;-78
2021/09/19 07:13:11;;;;;;;28.90;17.20;;;;;;;11.01;100.00;93501.44;5113021;28;20204;-78
2021/09/19 07:15:39;;;;;;;28.40;16.00;;;;;;;11.07;100.00;93497.97;5112679;28;20648;-78
2021/09/19 07:18:06;;;;;;;26.00;15.90;;;;;;;11.22;100.00;93502.91;5113148;28;20201;-78
2021/09/19 07:20:32;;;;;;;28.93;16.43;;;;;;;11.38;100.00;93501.59;5116182;28;20198;-78
2021/09/19 07:22:58;;;;;;;31.77;16.53;;;;;;;11.44;100.00;93508.59;5116728;28;20208;-78
2021/09/19 07:25:26;;;;;;;30.10;17.23;;;;;;;11.63;100.00;93509.47;5116438;28;20633;-77
2021/09/19 07:27:53;;;;;;;29.90;15.93;;;;;;;11.72;100.00;93502.94;5116339;28;20221;-77
2021/09/19 07:30:19;;;;;;;28.03;15.67;;;;;;;11.75;100.00;93506.94;5115830;28;20205;-77
2021/09/19 07:32:46;;;;;;;32.03;17.33;;;;;;;11.90;100.00;93496.94;5116528;28;20194;-77
2021/09/19 07:35:13;;;;;;;26.52;15.38;;;;;;;11.98;100.00;93501.94;5116427;28;20204;-77
2021/09/19 07:37:40;;;;;;;28.23;15.73;;;;;;;11.99;100.00;93500.94;5116291;28;20205;-77
2021/09/19 07:40:08;;;;;;;24.88;15.52;;;;;;;12.15;100.00;93502.19;5116372;28;20198;-77
2021/09/19 07:42:36;;;;;;;28.55;14.48;;;;;;;12.12;100.00;93499.19;5116152;28;20194;-78
2021/09/19 07:45:03;;;;;;;25.17;14.43;;;;;;;12.10;100.00;93499.41;5116065;28;20298;-80
2021/09/19 07:47:31;;;;;;;22.80;13.35;;;;;;;12.21;100.00;93514.41;5116159;28;20225;-78
2021/09/19 07:49:59;;;;;;;22.40;13.65;;;;;;;12.49;100.00;93513.13;5115958;28;20200;-78
2021/09/19 07:52:25;;;;;;;23.58;13.98;;;;;;;12.54;100.00;93505.41;5115942;28;20193;-78
2021/09/19 07:54:54;;;;;;;24.20;13.52;;;;;;;12.61;100.00;93510.56;5115939;28;20689;-79
2021/09/19 07:57:20;;;;;;;22.45;11.90;;;;;;;12.63;100.00;93502.50;5115801;28;20202;-79
2021/09/19 07:59:48;;;;;;;23.85;13.30;;;;;;;12.59;100.00;93502.94;5116028;28;20209;-79
2021/09/19 08:02:15;;;;;;;23.58;12.82;;;;;;;12.69;100.00;93496.34;5115940;28;20201;-79
2021/09/19 08:04:42;;;;;;;23.15;12.05;;;;;;;12.94;100.00;93506.75;5115858;28;20198;-79
2021/09/19 08:07:08;;;;;;;23.77;12.55;;;;;;;13.05;100.00;93507.81;5115655;28;20204;-79
2021/09/19 08:09:35;;;;;;;23.35;12.48;;;;;;;13.04;100.00;93514.06;5115676;28;20205;-78
2021/09/19 08:12:01;;;;;;;24.10;14.05;;;;;;;12.91;100.00;93515.84;5115677;28;20289;-79
2021/09/19 08:14:28;;;;;;;26.17;14.63;;;;;;;13.02;100.00;93516.09;5115665;28;20197;-79
2021/09/19 08:16:56;;;;;;;25.95;15.25;;;;;;;13.18;100.00;93518.09;5115682;28;20200;-78
2021/09/19 08:19:24;;;;;;;24.13;15.50;;;;;;;13.36;100.00;93525.16;5114831;28;20446;-79
2021/09/19 08:21:51;;;;;;;31.75;16.13;;;;;;;13.47;100.00;93524.41;5115404;28;20683;-79
2021/09/19 08:24:18;;;;;;;27.10;15.50;;;;;;;13.58;100.00;93525.44;5115391;28;20209;-79
2021/09/19 08:26:44;;;;;;;25.88;15.35;;;;;;;13.57;100.00;93523.81;5115064;28;20255;-78
2021/09/19 08:29:12;;;;;;;24.25;14.98;;;;;;;13.63;100.00;93524.75;5115157;28;20240;-79
2021/09/19 08:31:39;;;;;;;27.48;14.45;;;;;;;13.48;100.00;93530.44;5114157;28;20201;-79
2021/09/19 08:34:08;;;;;;;24.17;14.70;;;;;;;13.35;100.00;93533.25;5115350;28;20202;-79
2021/09/19 08:36:34;;;;;;;23.52;14.38;;;;;;;13.49;100.00;93522.34;5115194;28;20201;-79
2021/09/19 08:39:01;;;;;;;20.88;13.93;;;;;;;13.50;100.00;93536.25;5114945;28;20209;-79
2021/09/19 08:41:27;;;;;;;23.00;13.90;;;;;;;13.29;100.00;93527.84;5115271;28;20205;-79
2021/09/19 08:43:54;;;;;;;21.50;14.50;;;;;;;13.42;100.00;93526.91;5115088;28;20560;-79
2021/09/19 08:46:22;;;;;;;23.08;12.98;;;;;;;13.47;100.00;93531.44;5115062;28;20208;-78
2021/09/19 08:48:49;;;;;;;22.33;13.57;;;;;;;13.46;100.00;93537.72;5114802;28;20221;-79
2021/09/19 08:51:17;;;;;;;22.08;13.02;;;;;;;13.40;100.00;93543.84;5114907;28;20197;-78
2021/09/19 08:53:44;;;;;;;19.92;12.70;;;;;;;13.45;100.00;93550.03;5114772;28;20198;-79
2021/09/19 08:56:10;;;;;;;21.80;13.35;;;;;;;13.69;100.00;93547.47;5115020;28;20204;-79
2021/09/19 08:58:38;;;;;;;21.38;13.00;;;;;;;13.99;100.00;93542.16;5114707;28;20202;-79
2021/09/19 09:01:06;;;;;;;19.98;12.55;;;;;;;14.22;100.00;93545.81;5114751;28;20197;-79
2021/09/19 09:03:33;;;;;;;20.75;12.18;;;;;;;14.36;100.00;93536.69;5114571;28;20193;-80
2021/09/19 09:06:01;;;;;;;19.60;11.98;;;;;;;14.23;100.00;93542.16;5114433;28;20220;-79
2021/09/19 09:08:31;;;;;;;20.83;12.52;;;;;;;14.16;100.00;93546.75;5114647;28;20296;-78
2021/09/19 09:11:00;;;;;;;21.55;11.75;;;;;;;14.52;100.00;93539.63;5114625;28;20206;-78
2021/09/19 09:13:28;;;;;;;19.40;10.52;;;;;;;14.97;100.00;93533.72;5114557;28;20194;-76
2021/09/19 09:16:04;;;;;;;15.43;10.75;;;;;;;15.05;100.00;93543.88;5114336;28;20194;-77
2021/09/19 09:18:33;;;;;;;16.55;10.43;;;;;;;15.42;100.00;93540.91;5114281;28;20827;-77
2021/09/19 09:21:01;;;;;;;17.80;11.00;;;;;;;15.60;100.00;93525.94;5114432;28;20555;-77
2021/09/19 09:23:35;;;;;;;16.98;10.73;;;;;;;15.72;100.00;93532.72;5114303;28;20193;-77
2021/09/19 09:26:13;;;;;;;17.75;10.88;;;;;;;15.64;100.00;93534.97;5113614;28;20237;-77
2021/09/19 09:28:41;;;;;;;19.02;11.32;;;;;;;15.98;100.00;93527.88;5114066;28;20229;-77
2021/09/19 09:31:09;;;;;;;17.35;10.70;;;;;;;15.83;100.00;93528.44;5114039;28;20225;-78
2021/09/19 09:33:36;;;;;;;18.75;10.32;;;;;;;15.67;100.00;93523.94;5113944;28;20193;-77
2021/09/19 09:36:07;;;;;;;17.88;9.90;;;;;;;15.90;100.00;93518.56;5114071;28;20201;-78
2021/09/19 09:38:37;;;;;;;12.73;8.27;;;;;;;16.05;100.00;93523.28;5113990;28;20287;-78
2021/09/19 09:41:05;;;;;;;15.50;8.88;;;;;;;15.78;100.00;93515.19;5113779;28;20258;-77
2021/09/19 09:43:31;;;;;;;12.75;8.95;;;;;;;16.07;100.00;93517.75;5113484;28;20200;-77
2021/09/19 09:46:09;;;;;;;13.98;9.05;;;;;;;16.10;100.00;93512.00;5113779;28;20205;-77
2021/09/19 09:48:39;;;;;;;13.52;9.18;;;;;;;15.90;100.00;93507.22;5113927;28;20236;-77
2021/09/19 09:51:20;;;;;;;14.02;8.35;;;;;;;16.00;100.00;93507.38;5113740;28;20198;-78
2021/09/19 09:53:55;;;;;;;13.32;7.93;;;;;;;15.91;100.00;93509.63;5113756;28;20201;-77
2021/09/19 09:56:23;;;;;;;13.70;8.38;;;;;;;15.81;100.00;93509.47;5113748;28;20292;-78
2021/09/19 09:58:52;;;;;;;14.30;8.30;;;;;;;15.79;100.00;93514.19;5113783;28;20198;-77
2021/09/19 10:01:20;;;;;;;14.80;9.25;;;;;;;15.99;100.00;93515.53;5113692;28;20207;-77
2021/09/19 10:03:46;;;;;;;21.30;8.07;;;;;;;16.23;100.00;93508.25;5113494;28;20656;-77
2021/09/19 10:06:14;;;;;;;13.18;8.13;;;;;;;16.41;100.00;93502.69;5113511;28;20208;-78
2021/09/19 10:08:42;;;;;;;13.13;8.45;;;;;;;16.19;100.00;93507.16;5113327;28;20229;-78
2021/09/19 10:11:10;;;;;;;14.30;7.47;;;;;;;16.21;100.00;93497.94;5113745;28;20202;-77
2021/09/19 10:13:44;;;;;;;11.98;7.57;;;;;;;16.41;100.00;93499.28;5113476;28;20655;-77
2021/09/19 10:16:12;;;;;;;15.23;8.15;;;;;;;16.25;100.00;93492.97;5113525;28;20204;-76
2021/09/19 10:18:38;;;;;;;14.52;9.02;;;;;;;16.21;100.00;93491.88;5113397;28;20567;-76
2021/09/19 10:21:06;;;;;;;13.40;8.77;;;;;;;16.54;100.00;93491.00;5113294;28;20204;-76
2021/09/19 10:23:34;;;;;;;12.77;8.65;;;;;;;16.42;100.00;93491.13;5113562;28;20193;-77
2021/09/19 10:26:08;;;;;;;14.90;9.50;;;;;;;16.34;100.00;93490.75;5113342;28;20287;-77
2021/09/19 10:28:38;;;;;;;14.15;9.55;;;;;;;16.42;100.00;93483.22;5113248;28;20221;-77
2021/09/19 10:31:20;;;;;;;14.35;8.90;;;;;;;16.28;100.00;93482.75;5113403;28;20204;-76
2021/09/19 10:33:51;;;;;;;14.02;8.85;;;;;;;16.37;100.00;93484.97;5113254;28;20643;-78
2021/09/19 10:36:48;;;;;;;13.98;8.57;;;;;;;16.33;100.00;93481.25;5113521;28;20202;-78
2021/09/19 10:39:20;;;;;;;12.38;7.85;;;;;;;16.44;100.00;93482.97;5108759;28;20201;-77
2021/09/19 10:42:20;;;;;;;11.95;8.20;;;;;;;16.07;100.00;93483.50;5113105;28;20572;-78
2021/09/19 10:44:59;;;;;;;12.70;7.47;;;;;;;16.25;100.00;93490.34;5109226;28;20203;-78
2021/09/19 10:47:34;;;;;;;12.38;7.53;;;;;;;16.20;100.00;93485.81;5113264;28;20212;-78
2021/09/19 10:50:25;;;;;;;11.55;7.55;;;;;;;16.11;100.00;93487.28;5092784;28;20251;-77
2021/09/19 10:52:54;;;;;;;12.50;7.50;;;;;;;16.23;100.00;93485.31;5092762;28;20241;-77
2021/09/19 10:55:25;;;;;;;12.57;7.28;;;;;;;16.58;100.00;93481.56;5095959;28;20201;-79
2021/09/19 10:58:03;;;;;;;11.93;8.05;;;;;;;16.54;100.00;93490.22;5096585;28;20605;-77
2021/09/19 11:00:33;;;;;;;14.63;9.65;;;;;;;16.64;100.00;93485.88;5096537;28;20679;-76
2021/09/19 11:03:02;;;;;;;16.85;9.85;;;;;;;16.41;100.00;93486.88;5096396;28;20247;-77
2021/09/19 11:05:31;;;;;;;13.80;9.45;;;;;;;16.68;100.00;93483.53;5096324;28;20648;-76
2021/09/19 11:08:16;;;;;;;16.20;9.27;;;;;;;16.69;100.00;93487.78;5096489;28;20201;-77
2021/09/19 11:11:20;;;;;;;9.27;6.50;;;;;;;17.31;100.00;93486.63;5096420;28;20276;-77
2021/09/19 11:13:53;;;;;;;13.80;8.60;;;;;;;17.42;98.34;93489.34;5096285;28;20224;-77
2021/09/19 11:16:27;;;;;;;20.65;12.77;;;;;;;17.43;99.45;93485.69;5094918;28;20648;-78
2021/09/19 11:18:55;;;;;;;14.82;8.60;;;;;;;17.65;98.44;93483.78;5096121;28;20201;-78